Time;durP1;ratioP1;P1;durP2;ratioP2;P2;SDS_P1;SDS_P2;PMS_P1;PMS_P2;Temp;Humidity;BMP_temperature;BMP_pressure;BME280_temperature;BME280_humidity;BME280_pressure;Samples;Min_cycle;Max_cycle;Signal;HPM_P1;HPM_P2
2023/06/07 00:00:24;;;;;;;21.92;19.63;;;;;;;;;;5113803;28;20078;-83
2023/06/07 00:02:51;;;;;;;25.00;22.33;;;;;;;;;;5113463;28;20067;-83
2023/06/07 00:05:21;;;;;;;25.45;22.85;;;;;;;;;;5112374;28;20054;-83
2023/06/07 00:07:48;;;;;;;24.92;22.35;;;;;;;;;;5113513;28;20081;-82
2023/06/07 00:10:16;;;;;;;26.15;23.33;;;;;;;;;;5113410;28;20054;-82
2023/06/07 00:12:43;;;;;;;26.65;23.95;;;;;;;;;;5113361;28;20047;-82
2023/06/07 00:15:10;;;;;;;26.70;23.90;;;;;;;;;;5113318;28;20105;-82
2023/06/07 00:17:40;;;;;;;26.17;23.58;;;;;;;;;;5111603;28;20377;-82
2023/06/07 00:20:08;;;;;;;26.17;23.42;;;;;;;;;;5111673;28;20043;-82
2023/06/07 00:22:37;;;;;;;22.45;20.35;;;;;;;;;;5112037;28;20076;-82
2023/06/07 00:25:04;;;;;;;22.42;20.10;;;;;;;;;;5111627;28;20048;-82
2023/06/07 00:27:32;;;;;;;20.15;17.90;;;;;;;;;;5113424;28;20050;-83
2023/06/07 00:29:59;;;;;;;19.15;17.17;;;;;;;;;;5113149;28;20051;-82
2023/06/07 00:32:26;;;;;;;18.45;16.63;;;;;;;;;;5111564;28;20446;-83
2023/06/07 00:34:53;;;;;;;18.45;15.88;;;;;;;;;;5111909;28;20089;-82
2023/06/07 00:37:21;;;;;;;19.23;17.33;;;;;;;;;;5112898;28;20090;-82
2023/06/07 00:39:48;;;;;;;19.63;17.73;;;;;;;;;;5111951;28;20054;-83
2023/06/07 00:42:15;;;;;;;18.70;16.90;;;;;;;;;;5112991;28;20040;-82
2023/06/07 00:44:42;;;;;;;20.35;18.40;;;;;;;;;;5111717;28;20048;-83
2023/06/07 00:47:09;;;;;;;18.80;16.83;;;;;;;;;;5113106;28;20112;-83
2023/06/07 00:49:37;;;;;;;19.58;17.50;;;;;;;;;;5112603;28;20523;-83
2023/06/07 00:52:04;;;;;;;21.27;19.05;;;;;;;;;;5112861;28;20088;-82
2023/06/07 00:54:31;;;;;;;19.77;17.92;;;;;;;;;;5112694;28;20047;-83
2023/06/07 00:56:59;;;;;;;21.50;18.60;;;;;;;;;;5113065;28;20446;-82
2023/06/07 00:59:26;;;;;;;21.30;18.42;;;;;;;;;;5112761;28;20097;-83
2023/06/07 01:01:55;;;;;;;18.98;17.08;;;;;;;;;;5112693;28;20511;-82
2023/06/07 01:04:24;;;;;;;18.80;16.83;;;;;;;;;;5111621;28;20047;-82
2023/06/07 01:06:52;;;;;;;18.15;16.35;;;;;;;;;;5111583;28;20044;-82
2023/06/07 01:09:20;;;;;;;18.10;16.20;;;;;;;;;;5112868;28;20056;-82
2023/06/07 01:11:49;;;;;;;18.80;16.80;;;;;;;;;;5112588;28;20101;-82
2023/06/07 01:14:16;;;;;;;17.77;16.05;;;;;;;;;;5112562;28;20043;-82
2023/06/07 01:16:44;;;;;;;18.38;16.48;;;;;;;;;;5112758;28;20079;-83
2023/06/07 01:19:18;;;;;;;17.83;16.10;;;;;;;;;;5112522;28;20514;-83
2023/06/07 01:21:45;;;;;;;19.52;17.25;;;;;;;;;;5112508;28;20059;-82
2023/06/07 01:24:13;;;;;;;19.80;16.67;;;;;;;;;;5111304;28;20043;-82
2023/06/07 01:26:40;;;;;;;20.23;18.25;;;;;;;;;;5112559;28;20135;-83
2023/06/07 01:29:07;;;;;;;18.88;16.92;;;;;;;;;;5112586;28;20075;-82
2023/06/07 01:31:35;;;;;;;18.48;16.65;;;;;;;;;;5111042;28;20059;-82
2023/06/07 01:34:04;;;;;;;19.55;17.65;;;;;;;;;;5112375;28;20054;-82
2023/06/07 01:36:32;;;;;;;20.52;18.42;;;;;;;;;;5113920;28;20056;-82
2023/06/07 01:39:00;;;;;;;20.17;18.08;;;;;;;;;;5114919;28;20100;-83
2023/06/07 01:41:31;;;;;;;24.50;20.48;;;;;;;;;;5116082;28;20093;-82
2023/06/07 01:43:59;;;;;;;25.70;21.55;;;;;;;;;;5116221;28;20056;-82
2023/06/07 01:46:26;;;;;;;22.25;19.52;;;;;;;;;;5116048;28;20051;-83
2023/06/07 01:48:54;;;;;;;19.67;17.60;;;;;;;;;;5114815;28;20044;-82
2023/06/07 01:51:21;;;;;;;17.55;15.90;;;;;;;;;;5115699;28;20089;-82
2023/06/07 01:53:51;;;;;;;19.88;15.25;;;;;;;;;;5115963;28;20044;-82
2023/06/07 01:56:54;;;;;;;16.25;14.75;;;;;;;;;;5115974;28;20055;-83
2023/06/07 01:59:41;;;;;;;16.67;15.00;;;;;;;;;;5072894;28;20052;-83
2023/06/07 02:02:13;;;;;;;18.05;16.20;;;;;;;;;;5110790;28;20464;-82
2023/06/07 02:04:45;;;;;;;16.83;15.13;;;;;;;;;;5114439;28;20495;-84
2023/06/07 02:07:22;;;;;;;20.27;18.27;;;;;;;;;;5114205;28;20427;-81
2023/06/07 02:09:50;;;;;;;18.30;16.50;;;;;;;;;;5115605;28;20048;-81
2023/06/07 02:12:19;;;;;;;18.27;16.38;;;;;;;;;;5115195;28;20052;-81
2023/06/07 02:14:52;;;;;;;18.17;16.38;;;;;;;;;;5114207;28;20043;-81
2023/06/07 02:17:20;;;;;;;19.00;16.77;;;;;;;;;;5115200;28;20113;-81
2023/06/07 02:19:47;;;;;;;17.95;16.13;;;;;;;;;;5115192;28;20047;-82
2023/06/07 02:22:15;;;;;;;18.25;16.55;;;;;;;;;;5114984;28;20077;-82
2023/06/07 02:24:42;;;;;;;20.27;18.27;;;;;;;;;;5115414;28;20051;-82
2023/06/07 02:27:10;;;;;;;20.13;16.85;;;;;;;;;;5113671;28;20104;-82
2023/06/07 02:29:37;;;;;;;20.52;18.23;;;;;;;;;;5113620;28;20476;-82
2023/06/07 02:32:05;;;;;;;18.83;16.83;;;;;;;;;;5114472;28;20122;-82
2023/06/07 02:34:32;;;;;;;18.33;16.48;;;;;;;;;;5113434;28;20047;-81
2023/06/07 02:37:00;;;;;;;20.20;17.45;;;;;;;;;;5113807;28;20415;-82
2023/06/07 02:39:29;;;;;;;18.30;16.50;;;;;;;;;;5113472;28;20450;-81
2023/06/07 02:41:56;;;;;;;19.70;17.75;;;;;;;;;;5114729;28;20048;-82
2023/06/07 02:44:23;;;;;;;19.38;17.50;;;;;;;;;;5113386;28;20044;-82
2023/06/07 02:46:50;;;;;;;18.48;16.52;;;;;;;;;;5113438;28;20051;-82
2023/06/07 02:49:18;;;;;;;20.42;18.40;;;;;;;;;;5113319;28;20125;-82
2023/06/07 02:51:45;;;;;;;21.02;18.98;;;;;;;;;;5114370;28;20100;-81
2023/06/07 02:54:15;;;;;;;21.52;19.33;;;;;;;;;;5113263;28;20484;-82
2023/06/07 02:56:43;;;;;;;19.55;17.48;;;;;;;;;;5114561;28;20508;-82
2023/06/07 02:59:10;;;;;;;22.25;19.50;;;;;;;;;;5114349;28;20488;-81
2023/06/07 03:01:37;;;;;;;25.27;20.58;;;;;;;;;;5114429;28;20404;-82
2023/06/07 03:04:05;;;;;;;23.00;20.15;;;;;;;;;;5114399;28;20126;-81
2023/06/07 03:06:33;;;;;;;23.30;20.42;;;;;;;;;;5113055;28;20139;-82
2023/06/07 03:09:00;;;;;;;21.88;19.45;;;;;;;;;;5114359;28;20143;-82
2023/06/07 03:11:27;;;;;;;21.02;18.83;;;;;;;;;;5114151;28;20408;-82
2023/06/07 03:13:54;;;;;;;22.40;19.20;;;;;;;;;;5112986;28;20101;-82
2023/06/07 03:16:22;;;;;;;21.73;18.75;;;;;;;;;;5112959;28;20051;-82
2023/06/07 03:18:52;;;;;;;21.25;19.00;;;;;;;;;;5114196;28;20086;-82
2023/06/07 03:21:19;;;;;;;20.90;18.13;;;;;;;;;;5113853;28;20097;-82
2023/06/07 03:23:46;;;;;;;19.90;18.00;;;;;;;;;;5112589;28;20043;-82
2023/06/07 03:26:14;;;;;;;23.65;20.05;;;;;;;;;;5112595;28;20086;-82
2023/06/07 03:28:41;;;;;;;19.65;17.65;;;;;;;;;;5114003;28;20506;-82
2023/06/07 03:31:08;;;;;;;20.67;18.55;;;;;;;;;;5113594;28;20055;-82
2023/06/07 03:33:35;;;;;;;20.52;18.52;;;;;;;;;;5112455;28;20431;-82
2023/06/07 03:36:07;;;;;;;20.00;18.02;;;;;;;;;;5113837;28;20047;-83
2023/06/07 03:38:34;;;;;;;18.83;16.95;;;;;;;;;;5113715;28;20039;-82
2023/06/07 03:41:01;;;;;;;18.85;16.85;;;;;;;;;;5112418;28;20070;-82
2023/06/07 03:43:28;;;;;;;19.67;17.77;;;;;;;;;;5112392;28;20075;-82
2023/06/07 03:45:55;;;;;;;24.88;19.75;;;;;;;;;;5113581;28;20043;-82
2023/06/07 03:48:23;;;;;;;20.80;18.63;;;;;;;;;;5112269;28;20047;-82
2023/06/07 03:50:50;;;;;;;20.45;18.42;;;;;;;;;;5113482;28;20048;-82
2023/06/07 03:53:18;;;;;;;20.63;18.58;;;;;;;;;;5113539;28;20098;-82
2023/06/07 03:55:46;;;;;;;23.38;19.60;;;;;;;;;;5113212;28;20066;-82
2023/06/07 03:58:18;;;;;;;23.17;20.80;;;;;;;;;;5113023;28;20075;-82
2023/06/07 04:00:46;;;;;;;21.55;19.33;;;;;;;;;;5112886;28;20051;-83
2023/06/07 04:03:14;;;;;;;22.30;19.95;;;;;;;;;;5113559;28;20088;-82
2023/06/07 04:05:41;;;;;;;21.45;17.67;;;;;;;;;;5114233;28;20082;-82
2023/06/07 04:08:10;;;;;;;22.48;20.17;;;;;;;;;;5113284;28;20484;-82
2023/06/07 04:10:37;;;;;;;19.40;17.35;;;;;;;;;;5113586;28;20480;-82
2023/06/07 04:13:04;;;;;;;18.80;16.48;;;;;;;;;;5113424;28;20100;-82
2023/06/07 04:15:31;;;;;;;21.10;17.60;;;;;;;;;;5111779;28;20051;-82
2023/06/07 04:17:59;;;;;;;23.25;20.85;;;;;;;;;;5112141;28;20055;-82
2023/06/07 04:20:26;;;;;;;22.58;20.17;;;;;;;;;;5111687;28;20557;-82
2023/06/07 04:22:53;;;;;;;20.60;18.50;;;;;;;;;;5111895;28;20047;-82
2023/06/07 04:25:24;;;;;;;20.83;18.23;;;;;;;;;;5113098;28;20369;-81
2023/06/07 04:27:59;;;;;;;20.85;18.75;;;;;;;;;;5112898;28;20073;-82
2023/06/07 04:30:36;;;;;;;25.45;19.70;;;;;;;;;;5113134;28;20127;-82
2023/06/07 04:33:08;;;;;;;37.42;26.45;;;;;;;;;;5112811;28;20048;-82
2023/06/07 04:35:36;;;;;;;32.20;24.48;;;;;;;;;;5111634;28;20122;-82
2023/06/07 04:38:03;;;;;;;27.27;24.38;;;;;;;;;;5112577;28;20487;-82
2023/06/07 04:40:31;;;;;;;25.17;21.35;;;;;;;;;;5111387;28;20052;-82
2023/06/07 04:43:05;;;;;;;23.85;21.35;;;;;;;;;;5112880;28;20087;-82
2023/06/07 04:45:33;;;;;;;22.73;20.45;;;;;;;;;;5112683;28;20052;-82
2023/06/07 04:48:00;;;;;;;21.88;19.67;;;;;;;;;;5112964;28;20043;-82
2023/06/07 04:50:33;;;;;;;23.50;19.38;;;;;;;;;;5112544;28;20074;-82
2023/06/07 04:53:02;;;;;;;32.80;21.20;;;;;;;;;;5111510;28;20048;-82
2023/06/07 04:55:30;;;;;;;23.63;20.63;;;;;;;;;;5113499;28;20043;-82
2023/06/07 04:57:59;;;;;;;34.97;24.73;;;;;;;;;;5120034;28;20047;-82
2023/06/07 05:00:27;;;;;;;28.98;22.73;;;;;;;;;;5112852;28;20503;-82
2023/06/07 05:02:54;;;;;;;24.75;21.88;;;;;;;;;;5111780;28;20491;-82
2023/06/07 05:05:21;;;;;;;27.48;23.23;;;;;;;;;;5111628;28;20054;-82
2023/06/07 05:07:49;;;;;;;25.70;21.08;;;;;;;;;;5112880;28;20043;-82
2023/06/07 05:10:17;;;;;;;26.02;21.77;;;;;;;;;;5112379;28;20374;-82
2023/06/07 05:12:45;;;;;;;30.55;21.67;;;;;;;;;;5115733;28;20051;-82
2023/06/07 05:15:12;;;;;;;26.88;20.88;;;;;;;;;;5115103;28;20488;-82
2023/06/07 05:17:39;;;;;;;27.05;22.05;;;;;;;;;;5115185;28;20101;-82
2023/06/07 05:20:13;;;;;;;26.63;20.65;;;;;;;;;;5116488;28;20084;-82
2023/06/07 05:22:41;;;;;;;37.60;25.38;;;;;;;;;;5115765;28;20075;-82
2023/06/07 05:25:08;;;;;;;33.40;23.80;;;;;;;;;;5114556;28;20043;-82
2023/06/07 05:27:36;;;;;;;34.60;22.77;;;;;;;;;;5115225;28;20415;-82
2023/06/07 05:30:06;;;;;;;46.70;28.20;;;;;;;;;;5116221;28;20051;-81
2023/06/07 05:32:34;;;;;;;47.35;28.13;;;;;;;;;;5115600;28;20495;-82
2023/06/07 05:35:02;;;;;;;43.40;28.15;;;;;;;;;;5116085;28;20056;-82
2023/06/07 05:37:30;;;;;;;36.25;27.63;;;;;;;;;;5115901;28;20427;-82
2023/06/07 05:39:58;;;;;;;43.72;28.35;;;;;;;;;;5115982;28;20047;-82
2023/06/07 05:42:25;;;;;;;40.47;28.30;;;;;;;;;;5114587;28;20052;-82
2023/06/07 05:44:54;;;;;;;48.05;29.77;;;;;;;;;;5114637;28;20122;-82
2023/06/07 05:47:25;;;;;;;53.30;31.50;;;;;;;;;;5114601;28;20047;-82
2023/06/07 05:49:53;;;;;;;63.75;33.63;;;;;;;;;;5115817;28;20048;-82
2023/06/07 05:52:20;;;;;;;64.40;32.88;;;;;;;;;;5115929;28;20396;-82
2023/06/07 05:54:49;;;;;;;74.45;36.47;;;;;;;;;;5115929;28;20476;-84
2023/06/07 05:57:16;;;;;;;69.45;34.20;;;;;;;;;;5115842;28;20100;-82
2023/06/07 05:59:43;;;;;;;74.10;35.40;;;;;;;;;;5115796;28;20057;-82
2023/06/07 06:02:11;;;;;;;76.18;36.72;;;;;;;;;;5114410;28;20096;-82
2023/06/07 06:04:42;;;;;;;67.78;32.55;;;;;;;;;;5115652;28;20104;-82
2023/06/07 06:07:10;;;;;;;67.50;31.60;;;;;;;;;;5114631;28;20048;-82
2023/06/07 06:09:37;;;;;;;61.90;31.15;;;;;;;;;;5115770;28;20052;-82
2023/06/07 06:12:06;;;;;;;56.95;30.45;;;;;;;;;;5115398;28;20120;-81
2023/06/07 06:14:33;;;;;;;59.25;31.75;;;;;;;;;;5115488;28;20051;-81
2023/06/07 06:17:01;;;;;;;63.00;31.75;;;;;;;;;;5114184;28;20055;-82
2023/06/07 06:19:28;;;;;;;50.83;28.20;;;;;;;;;;5112071;28;20050;-82
2023/06/07 06:21:55;;;;;;;48.42;27.48;;;;;;;;;;5113472;28;20104;-82
2023/06/07 06:24:22;;;;;;;45.63;25.40;;;;;;;;;;5114424;28;20051;-82
2023/06/07 06:26:50;;;;;;;42.40;23.40;;;;;;;;;;5113538;28;20047;-82
2023/06/07 06:29:17;;;;;;;52.47;26.63;;;;;;;;;;5115301;28;20044;-81
2023/06/07 06:31:45;;;;;;;45.80;23.90;;;;;;;;;;5113911;28;20072;-82
2023/06/07 06:34:12;;;;;;;35.47;22.02;;;;;;;;;;5115185;28;20100;-82
2023/06/07 06:36:39;;;;;;;33.38;18.52;;;;;;;;;;5115122;27;20051;-82
2023/06/07 06:39:08;;;;;;;34.30;19.80;;;;;;;;;;5114889;28;20056;-83
2023/06/07 06:41:35;;;;;;;31.90;19.98;;;;;;;;;;5114169;28;20051;-82
2023/06/07 06:44:02;;;;;;;27.90;18.10;;;;;;;;;;5113856;28;20100;-83
2023/06/07 06:46:29;;;;;;;27.92;16.83;;;;;;;;;;5113632;28;20055;-82
2023/06/07 06:48:56;;;;;;;27.45;17.73;;;;;;;;;;5114882;28;20112;-83
2023/06/07 06:51:38;;;;;;;24.67;17.52;;;;;;;;;;5114691;28;20047;-82
2023/06/07 06:54:09;;;;;;;31.90;17.75;;;;;;;;;;5113435;28;20113;-82
2023/06/07 06:56:36;;;;;;;23.38;16.35;;;;;;;;;;5112583;28;20104;-82
2023/06/07 06:59:03;;;;;;;22.55;14.25;;;;;;;;;;5114181;28;20052;-82
2023/06/07 07:01:47;;;;;;;20.83;14.85;;;;;;;;;;5114546;28;20117;-83
2023/06/07 07:04:15;;;;;;;18.17;13.73;;;;;;;;;;5114619;28;20054;-83
2023/06/07 07:06:43;;;;;;;18.60;13.73;;;;;;;;;;5114827;28;20054;-83
2023/06/07 07:09:11;;;;;;;23.15;14.65;;;;;;;;;;5114513;28;20043;-82
2023/06/07 07:11:38;;;;;;;21.17;13.45;;;;;;;;;;5114372;28;20101;-82
2023/06/07 07:14:05;;;;;;;24.10;14.63;;;;;;;;;;5113183;28;20048;-82
2023/06/07 07:16:32;;;;;;;18.75;13.00;;;;;;;;;;5113284;28;20101;-83
2023/06/07 07:19:05;;;;;;;17.92;13.57;;;;;;;;;;5114522;28;20446;-83
2023/06/07 07:21:32;;;;;;;14.20;11.05;;;;;;;;;;5113020;28;20462;-84
2023/06/07 07:23:59;;;;;;;18.17;12.27;;;;;;;;;;5114333;28;20043;-83
2023/06/07 07:26:27;;;;;;;17.65;12.45;;;;;;;;;;5114237;28;20092;-84
2023/06/07 07:28:54;;;;;;;21.75;12.43;;;;;;;;;;5113376;28;20491;-84
2023/06/07 07:31:21;;;;;;;16.20;10.50;;;;;;;;;;5112770;28;20553;-84
2023/06/07 07:33:49;;;;;;;13.93;10.77;;;;;;;;;;5113194;28;20131;-84
2023/06/07 07:36:17;;;;;;;14.10;9.55;;;;;;;;;;5113858;28;20130;-84
2023/06/07 07:38:45;;;;;;;12.07;9.90;;;;;;;;;;5114040;28;20047;-84
2023/06/07 07:41:14;;;;;;;14.23;10.23;;;;;;;;;;5112823;28;20047;-83
2023/06/07 07:43:41;;;;;;;11.68;9.02;;;;;;;;;;5112655;28;20066;-84
2023/06/07 07:46:09;;;;;;;16.73;11.18;;;;;;;;;;5113984;28;20047;-83
2023/06/07 07:48:36;;;;;;;13.77;10.38;;;;;;;;;;5113726;28;20043;-84
2023/06/07 07:51:03;;;;;;;14.00;10.15;;;;;;;;;;5113923;28;20051;-84
2023/06/07 07:53:32;;;;;;;15.40;11.52;;;;;;;;;;5113948;28;20081;-84
2023/06/07 07:55:59;;;;;;;16.55;11.50;;;;;;;;;;5094717;28;20047;-87
2023/06/07 07:58:26;;;;;;;13.15;10.32;;;;;;;;;;5092332;28;20392;-84
2023/06/07 08:00:53;;;;;;;23.95;10.98;;;;;;;;;;5093308;28;20052;-84
2023/06/07 08:03:21;;;;;;;12.20;9.15;;;;;;;;;;5092469;28;20052;-85
2023/06/07 08:05:48;;;;;;;14.77;9.70;;;;;;;;;;5092376;28;20068;-85
2023/06/07 08:08:16;;;;;;;17.70;9.65;;;;;;;;;;5092276;28;20105;-84
2023/06/07 08:10:45;;;;;;;18.55;8.15;;;;;;;;;;5092437;28;20060;-86
2023/06/07 08:13:15;;;;;;;9.88;7.85;;;;;;;;;;5092619;28;20058;-84
2023/06/07 08:15:42;;;;;;;9.98;8.02;;;;;;;;;;5093270;28;20048;-84
2023/06/07 08:18:09;;;;;;;9.80;7.60;;;;;;;;;;5092219;28;20381;-85
2023/06/07 08:20:37;;;;;;;17.10;7.40;;;;;;;;;;5092292;28;20040;-85
2023/06/07 08:23:05;;;;;;;21.35;8.02;;;;;;;;;;5092497;28;20051;-85
2023/06/07 08:25:32;;;;;;;9.38;6.85;;;;;;;;;;5092463;28;20043;-84
2023/06/07 08:28:00;;;;;;;10.48;6.35;;;;;;;;;;5093706;28;20044;-86
2023/06/07 08:30:27;;;;;;;7.60;5.97;;;;;;;;;;5092278;28;20090;-86
2023/06/07 08:32:54;;;;;;;9.90;5.65;;;;;;;;;;5092076;28;20075;-85
2023/06/07 08:35:22;;;;;;;7.25;5.80;;;;;;;;;;5092302;28;20093;-87
2023/06/07 08:37:49;;;;;;;10.23;5.90;;;;;;;;;;5092226;28;20050;-87
2023/06/07 08:40:18;;;;;;;7.65;5.88;;;;;;;;;;5092230;28;20146;-87
2023/06/07 08:42:46;;;;;;;10.63;5.75;;;;;;;;;;5092532;28;20055;-87
2023/06/07 08:45:15;;;;;;;11.65;5.28;;;;;;;;;;5094369;28;20054;-87
2023/06/07 08:47:44;;;;;;;10.07;5.40;;;;;;;;;;5097646;28;20481;-87
2023/06/07 08:50:13;;;;;;;6.55;5.28;;;;;;;;;;5096826;28;20075;-87
2023/06/07 08:52:41;;;;;;;6.47;5.70;;;;;;;;;;5096535;28;20048;-86
2023/06/07 08:55:13;;;;;;;6.30;5.50;;;;;;;;;;5096668;28;20047;-91
2023/06/07 08:57:40;;;;;;;12.48;5.43;;;;;;;;;;5096404;28;20068;-87
2023/06/07 09:00:08;;;;;;;9.45;5.13;;;;;;;;;;5096633;28;20040;-88
2023/06/07 09:02:38;;;;;;;6.78;4.90;;;;;;;;;;5096886;28;20052;-87
2023/06/07 09:05:06;;;;;;;7.63;4.47;;;;;;;;;;5096449;28;20073;-88
2023/06/07 09:07:33;;;;;;;7.75;4.78;;;;;;;;;;5096696;28;20567;-88
2023/06/07 09:10:00;;;;;;;4.95;4.32;;;;;;;;;;5096267;28;20048;-87
2023/06/07 09:12:28;;;;;;;13.23;4.75;;;;;;;;;;5095993;28;20089;-88
2023/06/07 09:14:56;;;;;;;12.10;4.97;;;;;;;;;;5096401;28;20044;-87
2023/06/07 09:17:23;;;;;;;4.95;4.40;;;;;;;;;;5096292;28;20492;-90
2023/06/07 09:19:51;;;;;;;4.60;3.97;;;;;;;;;;5096211;28;20044;-87
2023/06/07 09:22:23;;;;;;;6.75;4.10;;;;;;;;;;5096863;28;20055;-88
2023/06/07 09:24:50;;;;;;;6.45;4.38;;;;;;;;;;5096119;28;20044;-88
2023/06/07 09:27:28;;;;;;;4.88;3.95;;;;;;;;;;5095820;28;20184;-88
2023/06/07 09:30:02;;;;;;;5.30;4.28;;;;;;;;;;5096318;28;20060;-88
2023/06/07 09:32:36;;;;;;;7.45;4.28;;;;;;;;;;5095425;28;20056;-87
2023/06/07 09:35:19;;;;;;;8.68;4.60;;;;;;;;;;5096102;28;20044;-89
2023/06/07 09:37:54;;;;;;;4.63;4.20;;;;;;;;;;5096088;28;20054;-88
2023/06/07 09:40:23;;;;;;;10.23;4.15;;;;;;;;;;5095959;28;20044;-87
2023/06/07 09:43:00;;;;;;;7.18;3.90;;;;;;;;;;5095682;28;20075;-88
2023/06/07 09:45:28;;;;;;;5.22;3.85;;;;;;;;;;5095700;28;20059;-88
2023/06/07 09:48:02;;;;;;;5.88;4.32;;;;;;;;;;5095937;28;20071;-90
2023/06/07 09:50:30;;;;;;;5.00;3.58;;;;;;;;;;5096522;28;20102;-90
2023/06/07 09:52:58;;;;;;;4.07;3.50;;;;;;;;;;5095621;28;20052;-91
2023/06/07 09:55:27;;;;;;;6.07;4.13;;;;;;;;;;5095759;28;20109;-89
2023/06/07 09:57:55;;;;;;;4.82;4.30;;;;;;;;;;5094376;28;20058;-89
2023/06/07 10:00:23;;;;;;;5.07;3.95;;;;;;;;;;5095703;28;20165;-88
2023/06/07 10:02:51;;;;;;;6.32;4.03;;;;;;;;;;5096259;28;20079;-88
2023/06/07 10:05:21;;;;;;;5.45;4.47;;;;;;;;;;5097235;28;20055;-91
2023/06/07 10:07:50;;;;;;;4.65;4.00;;;;;;;;;;5095469;28;20146;-90
2023/06/07 10:10:22;;;;;;;7.20;3.83;;;;;;;;;;5095914;28;20091;-93
2023/06/07 10:12:51;;;;;;;4.22;3.70;;;;;;;;;;5095887;28;20048;-87
2023/06/07 10:15:25;;;;;;;6.60;4.03;;;;;;;;;;5096203;28;20048;-88
2023/06/07 10:18:05;;;;;;;5.10;3.60;;;;;;;;;;5095867;28;20056;-89
2023/06/07 10:20:35;;;;;;;8.07;3.88;;;;;;;;;;5095183;28;20128;-89
2023/06/07 10:23:03;;;;;;;5.38;3.50;;;;;;;;;;5095973;28;20055;-86
2023/06/07 10:25:35;;;;;;;6.95;3.40;;;;;;;;;;5096621;28;20113;-86
2023/06/07 10:28:17;;;;;;;9.30;4.53;;;;;;;;;;5101721;28;20066;-91
2023/06/07 10:30:57;;;;;;;4.13;3.65;;;;;;;;;;5110259;28;20095;-92
2023/06/07 10:33:27;;;;;;;7.70;4.32;;;;;;;;;;5095651;28;20496;-91
2023/06/07 10:35:55;;;;;;;4.65;3.78;;;;;;;;;;5095185;28;20052;-90
2023/06/07 10:38:24;;;;;;;6.13;3.88;;;;;;;;;;5095068;28;20052;-86
2023/06/07 10:40:52;;;;;;;6.05;3.88;;;;;;;;;;5092624;28;20510;-88
2023/06/07 10:43:20;;;;;;;3.95;3.60;;;;;;;;;;5094518;28;20052;-88
2023/06/07 10:45:47;;;;;;;3.22;3.00;;;;;;;;;;5094655;28;20051;-87
2023/06/07 10:48:34;;;;;;;7.50;3.33;;;;;;;;;;5094409;28;20082;-89
2023/06/07 10:51:02;;;;;;;5.20;3.22;;;;;;;;;;5094482;28;20087;-88
2023/06/07 10:53:49;;;;;;;4.95;3.22;;;;;;;;;;5094444;28;20044;-92
2023/06/07 10:56:32;;;;;;;4.95;3.20;;;;;;;;;;5094203;28;20054;-88
2023/06/07 10:59:15;;;;;;;3.42;3.03;;;;;;;;;;5094442;28;20097;-87
2023/06/07 11:01:46;;;;;;;3.65;3.10;;;;;;;;;;5094407;28;20044;-85
2023/06/07 11:04:39;;;;;;;4.38;2.78;;;;;;;;;;5094244;28;20055;-86
2023/06/07 11:07:19;;;;;;;2.72;2.63;;;;;;;;;;5094016;28;20134;-90
2023/06/07 11:09:51;;;;;;;5.85;3.38;;;;;;;;;;5094305;28;20052;-89
2023/06/07 11:12:43;;;;;;;5.32;2.92;;;;;;;;;;5094102;28;20052;-88
2023/06/07 11:15:30;;;;;;;7.60;3.47;;;;;;;;;;5094389;28;20570;-89
2023/06/07 11:18:10;;;;;;;6.90;3.15;;;;;;;;;;5094411;28;20545;-90
2023/06/07 11:20:45;;;;;;;3.28;2.97;;;;;;;;;;5094699;28;20072;-89
2023/06/07 11:23:33;;;;;;;5.82;3.15;;;;;;;;;;5093979;28;20445;-88
2023/06/07 11:26:10;;;;;;;4.78;3.53;;;;;;;;;;5093930;28;20492;-88
2023/06/07 11:28:38;;;;;;;5.22;3.50;;;;;;;;;;5093918;28;20488;-88
2023/06/07 11:31:10;;;;;;;4.75;3.85;;;;;;;;;;5093969;28;20060;-88
2023/06/07 11:33:37;;;;;;;3.80;3.50;;;;;;;;;;5094174;28;20044;-89
2023/06/07 11:36:05;;;;;;;4.90;3.80;;;;;;;;;;5093957;28;20059;-88
2023/06/07 11:38:32;;;;;;;5.72;3.88;;;;;;;;;;5093526;28;20100;-92
2023/06/07 11:41:00;;;;;;;4.60;4.20;;;;;;;;;;5094083;28;20470;-89
2023/06/07 11:43:28;;;;;;;8.55;4.70;;;;;;;;;;5093611;28;20048;-89
2023/06/07 11:45:59;;;;;;;5.20;4.30;;;;;;;;;;5093757;28;20125;-92
2023/06/07 11:48:27;;;;;;;6.40;4.20;;;;;;;;;;5093285;28;20044;-90
2023/06/07 11:50:55;;;;;;;4.55;3.88;;;;;;;;;;5093164;28;20055;-88
2023/06/07 11:53:23;;;;;;;5.68;3.78;;;;;;;;;;5093596;28;20172;-90
2023/06/07 11:55:50;;;;;;;4.47;3.70;;;;;;;;;;5093638;28;20098;-88
2023/06/07 11:58:18;;;;;;;5.72;3.85;;;;;;;;;;5093086;28;20044;-88
2023/06/07 12:00:45;;;;;;;6.38;3.83;;;;;;;;;;5093542;28;20075;-86
2023/06/07 12:03:13;;;;;;;4.20;3.83;;;;;;;;;;5093022;28;20052;-90
2023/06/07 12:05:41;;;;;;;5.25;3.70;;;;;;;;;;5093060;28;20048;-85
2023/06/07 12:08:13;;;;;;;6.30;3.80;;;;;;;;;;5094274;28;20101;-88
2023/06/07 12:10:40;;;;;;;7.20;3.58;;;;;;;;;;5093092;28;20119;-87
2023/06/07 12:13:15;;;;;;;5.32;3.28;;;;;;;;;;5093137;28;20068;-88
2023/06/07 12:15:44;;;;;;;5.47;3.10;;;;;;;;;;5093235;28;20079;-87
2023/06/07 12:18:13;;;;;;;5.63;3.20;;;;;;;;;;5093474;28;20047;-88
2023/06/07 12:20:41;;;;;;;5.57;3.08;;;;;;;;;;5091004;28;20072;-87
2023/06/07 12:23:11;;;;;;;6.60;3.00;;;;;;;;;;5093132;28;20048;-94
2023/06/07 12:25:42;;;;;;;3.20;2.55;;;;;;;;;;5092778;28;20055;-88
2023/06/07 12:28:13;;;;;;;4.63;2.78;;;;;;;;;;5092809;28;20056;-87
2023/06/07 12:30:42;;;;;;;5.22;3.10;;;;;;;;;;5092839;28;20048;-91
2023/06/07 12:33:15;;;;;;;5.93;3.05;;;;;;;;;;5093525;28;20051;-88
2023/06/07 12:35:50;;;;;;;3.90;3.28;;;;;;;;;;5093538;28;20055;-87
2023/06/07 12:38:20;;;;;;;3.42;3.13;;;;;;;;;;5094728;28;20521;-89
2023/06/07 12:40:47;;;;;;;4.13;3.22;;;;;;;;;;5092634;28;20051;-88
2023/06/07 12:43:15;;;;;;;3.72;3.28;;;;;;;;;;5092985;28;20079;-87
2023/06/07 12:45:42;;;;;;;8.38;3.80;;;;;;;;;;5094169;28;20059;-86
2023/06/07 12:48:09;;;;;;;9.05;3.50;;;;;;;;;;5092456;28;20116;-90
2023/06/07 12:50:37;;;;;;;11.73;4.30;;;;;;;;;;5092992;28;20135;-85
2023/06/07 12:53:04;;;;;;;10.80;3.67;;;;;;;;;;5092578;28;20047;-88
2023/06/07 12:55:32;;;;;;;4.10;3.22;;;;;;;;;;5093111;28;20048;-88
2023/06/07 12:57:59;;;;;;;7.85;3.40;;;;;;;;;;5092483;28;20052;-87
2023/06/07 13:00:26;;;;;;;4.07;3.65;;;;;;;;;;5092546;28;20040;-86
2023/06/07 13:02:54;;;;;;;7.72;3.83;;;;;;;;;;5092319;28;20048;-87
2023/06/07 13:05:22;;;;;;;4.40;3.70;;;;;;;;;;5092309;28;20051;-88
2023/06/07 13:07:49;;;;;;;5.22;3.47;;;;;;;;;;5092538;28;20048;-88
2023/06/07 13:10:17;;;;;;;4.35;3.67;;;;;;;;;;5092056;28;20044;-89
2023/06/07 13:12:45;;;;;;;6.22;3.67;;;;;;;;;;5092442;28;20055;-88
2023/06/07 13:15:12;;;;;;;5.15;3.40;;;;;;;;;;5092406;28;20040;-87
2023/06/07 13:17:40;;;;;;;3.78;3.35;;;;;;;;;;5092020;28;20048;-86
2023/06/07 13:20:07;;;;;;;7.68;3.97;;;;;;;;;;5092173;28;20411;-88
2023/06/07 13:22:35;;;;;;;6.93;3.40;;;;;;;;;;5092152;28;20433;-86
2023/06/07 13:25:02;;;;;;;3.70;3.30;;;;;;;;;;5093204;28;20079;-85
2023/06/07 13:27:30;;;;;;;7.40;3.85;;;;;;;;;;5092065;28;20056;-86
2023/06/07 13:29:57;;;;;;;4.75;3.40;;;;;;;;;;5092079;28;20048;-89
2023/06/07 13:32:24;;;;;;;13.45;3.70;;;;;;;;;;5092830;28;20056;-89
2023/06/07 13:34:52;;;;;;;6.35;3.15;;;;;;;;;;5096055;28;20124;-86
2023/06/07 13:37:19;;;;;;;6.40;3.50;;;;;;;;;;5095582;28;20067;-86
2023/06/07 13:39:46;;;;;;;3.92;3.30;;;;;;;;;;5096855;28;20460;-87
2023/06/07 13:42:13;;;;;;;6.35;3.35;;;;;;;;;;5095470;28;20453;-85
2023/06/07 13:44:41;;;;;;;4.65;2.80;;;;;;;;;;5095547;28;20052;-86
2023/06/07 13:47:08;;;;;;;6.40;3.03;;;;;;;;;;5095729;28;20043;-87
2023/06/07 13:49:36;;;;;;;6.70;2.75;;;;;;;;;;5099185;28;20496;-85
2023/06/07 13:52:04;;;;;;;5.72;2.70;;;;;;;;;;5097549;28;20059;-93
2023/06/07 13:54:32;;;;;;;3.28;2.97;;;;;;;;;;5081527;28;20064;-89
2023/06/07 13:56:59;;;;;;;3.42;2.92;;;;;;;;;;5095941;28;20051;-87
2023/06/07 13:59:28;;;;;;;5.97;3.03;;;;;;;;;;5095308;28;20068;-87
2023/06/07 14:01:58;;;;;;;3.00;2.75;;;;;;;;;;5095408;28;20051;-85
2023/06/07 14:04:26;;;;;;;3.13;2.83;;;;;;;;;;5095440;28;20058;-87
2023/06/07 14:06:54;;;;;;;5.97;3.05;;;;;;;;;;5095599;28;20048;-88
2023/06/07 14:09:22;;;;;;;8.20;2.85;;;;;;;;;;5095149;28;20044;-87
2023/06/07 14:11:49;;;;;;;5.00;2.75;;;;;;;;;;5094694;28;20043;-85
2023/06/07 14:14:17;;;;;;;4.40;2.90;;;;;;;;;;5095744;28;20464;-86
2023/06/07 14:16:44;;;;;;;3.70;3.10;;;;;;;;;;5094854;28;20093;-88
2023/06/07 14:19:12;;;;;;;5.15;3.15;;;;;;;;;;5094998;28;20518;-85
2023/06/07 14:21:39;;;;;;;10.18;3.42;;;;;;;;;;5094836;28;20043;-90
2023/06/07 14:24:06;;;;;;;4.80;3.10;;;;;;;;;;5095152;28;20052;-87
2023/06/07 14:26:34;;;;;;;4.25;3.28;;;;;;;;;;5095203;28;20048;-88
2023/06/07 14:29:01;;;;;;;4.68;3.55;;;;;;;;;;5094852;28;20044;-84
2023/06/07 14:31:29;;;;;;;5.38;3.25;;;;;;;;;;5094997;28;20052;-89
2023/06/07 14:33:56;;;;;;;5.93;3.60;;;;;;;;;;5095375;28;20047;-86
2023/06/07 14:36:23;;;;;;;10.25;3.45;;;;;;;;;;5094294;28;20048;-87
2023/06/07 14:38:50;;;;;;;14.00;3.72;;;;;;;;;;5094945;28;20514;-89